Time;durP1;ratioP1;P1;durP2;ratioP2;P2;SDS_P1;SDS_P2;PMS_P1;PMS_P2;Temp;Humidity;BMP_temperature;BMP_pressure;BME280_temperature;BME280_humidity;BME280_pressure;Samples;Min_cycle;Max_cycle;Signal;HPM_P1;HPM_P2
2022/03/09 00:02:00;;;;;;;1.87;1.00;;;;;;;-0.65;62.43;96817.19;5053723;28;20247;-70
2022/03/09 00:04:26;;;;;;;1.40;1.17;;;;;;;-1.22;63.41;96823.38;5053836;28;20228;-70
2022/03/09 00:06:54;;;;;;;0.90;0.90;;;;;;;-1.10;63.44;96821.81;5054068;28;20201;-70
2022/03/09 00:09:21;;;;;;;1.40;1.30;;;;;;;-1.15;62.64;96829.81;5053859;28;20204;-70
2022/03/09 00:11:47;;;;;;;1.70;1.27;;;;;;;-1.24;63.17;96828.75;5053973;28;20204;-70
2022/03/09 00:14:14;;;;;;;0.63;0.63;;;;;;;-1.25;63.76;96832.25;5053669;28;20221;-70
2022/03/09 00:16:40;;;;;;;2.93;1.97;;;;;;;-1.34;64.12;96833.63;5038441;28;20579;-70
2022/03/09 00:19:07;;;;;;;1.60;1.37;;;;;;;-1.43;64.04;96830.75;5052968;28;20216;-70
2022/03/09 00:21:33;;;;;;;1.13;0.87;;;;;;;-1.72;65.53;96831.63;5052440;28;20225;-70
2022/03/09 00:24:01;;;;;;;14.97;1.40;;;;;;;-1.48;64.87;96825.03;5053444;28;20231;-70
2022/03/09 00:26:27;;;;;;;1.23;1.20;;;;;;;-1.76;65.47;96835.31;5053613;28;20197;-70
2022/03/09 00:28:54;;;;;;;1.17;0.97;;;;;;;-1.73;66.19;96832.56;5053386;28;20201;-70
2022/03/09 00:31:20;;;;;;;2.10;1.27;;;;;;;-1.66;66.36;96839.03;5053522;28;20208;-70
2022/03/09 00:33:47;;;;;;;2.07;1.30;;;;;;;-1.60;66.52;96826.59;5053559;28;20217;-70
2022/03/09 00:36:13;;;;;;;1.57;1.17;;;;;;;-1.73;66.72;96828.22;5053435;28;20205;-70
2022/03/09 00:38:40;;;;;;;2.03;1.83;;;;;;;-1.65;65.81;96832.94;5052995;28;20661;-70
2022/03/09 00:41:08;;;;;;;2.17;1.83;;;;;;;-1.49;65.92;96833.69;5052979;28;20232;-70
2022/03/09 00:43:36;;;;;;;2.30;1.73;;;;;;;-1.58;66.33;96834.25;5053447;28;20232;-70
2022/03/09 00:46:03;;;;;;;2.40;1.57;;;;;;;-1.45;66.33;96825.69;5051454;28;20292;-69
2022/03/09 00:48:30;;;;;;;0.77;0.77;;;;;;;-1.52;66.24;96826.13;5038091;28;20209;-70
2022/03/09 00:50:56;;;;;;;1.80;1.70;;;;;;;-1.66;66.40;96823.53;5037733;28;20210;-70
2022/03/09 00:53:22;;;;;;;1.23;1.23;;;;;;;-1.67;66.06;96824.44;5036584;28;20225;-70
2022/03/09 00:55:49;;;;;;;0.93;0.93;;;;;;;-1.66;66.38;96831.28;5037876;28;20662;-69
2022/03/09 00:58:17;;;;;;;1.37;1.30;;;;;;;-1.56;67.02;96827.25;5037703;28;21029;-69
2022/03/09 01:00:44;;;;;;;2.30;1.50;;;;;;;-1.66;67.38;96826.13;5037316;28;20231;-69
2022/03/09 01:03:10;;;;;;;1.73;1.60;;;;;;;-1.77;67.20;96824.16;5036823;28;20227;-69
2022/03/09 01:05:37;;;;;;;0.87;0.87;;;;;;;-1.95;66.69;96818.41;5037984;28;20205;-70
2022/03/09 01:08:03;;;;;;;1.43;1.33;;;;;;;-1.90;66.23;96827.53;5036887;28;20201;-69
2022/03/09 01:10:30;;;;;;;3.97;1.37;;;;;;;-2.15;67.72;96829.00;5037353;28;20217;-69
2022/03/09 01:12:56;;;;;;;1.80;1.27;;;;;;;-1.96;68.35;96827.91;5037325;28;20742;-70
2022/03/09 01:15:24;;;;;;;2.10;1.73;;;;;;;-1.68;67.90;96827.94;5037589;28;20207;-69
2022/03/09 01:17:51;;;;;;;3.17;1.37;;;;;;;-1.70;67.65;96822.06;5036697;28;20443;-69
2022/03/09 01:20:18;;;;;;;3.37;1.87;;;;;;;-1.84;67.03;96827.19;5037269;28;20596;-70
2022/03/09 01:22:44;;;;;;;1.30;1.20;;;;;;;-1.86;67.25;96823.84;5036430;28;20232;-72
2022/03/09 01:25:11;;;;;;;1.40;1.30;;;;;;;-1.78;67.30;96816.50;5036722;28;20209;-69
2022/03/09 01:27:38;;;;;;;0.77;0.77;;;;;;;-1.63;67.56;96821.59;5037424;28;20926;-70
2022/03/09 01:30:06;;;;;;;3.33;1.40;;;;;;;-1.58;67.64;96818.72;5037230;28;20205;-69
2022/03/09 01:32:35;;;;;;;2.23;1.83;;;;;;;-1.72;68.44;96816.13;5045280;28;20228;-69
2022/03/09 01:35:02;;;;;;;7.93;3.67;;;;;;;-1.78;67.53;96814.75;5052282;28;20220;-69
2022/03/09 01:37:28;;;;;;;0.87;0.87;;;;;;;-1.79;66.90;96813.06;5051961;28;20349;-69
2022/03/09 01:39:55;;;;;;;0.80;0.80;;;;;;;-1.79;66.42;96805.31;5051378;28;20208;-69
2022/03/09 01:42:22;;;;;;;1.97;0.97;;;;;;;-1.96;67.77;96799.50;5051139;28;20229;-69
2022/03/09 01:44:48;;;;;;;4.90;1.90;;;;;;;-1.87;67.93;96801.56;5047490;28;20205;-69
2022/03/09 01:47:15;;;;;;;1.63;1.43;;;;;;;-1.74;66.88;96800.72;5036654;28;20227;-70
2022/03/09 01:49:43;;;;;;;3.20;1.33;;;;;;;-1.59;67.06;96786.06;5036333;28;20209;-70
2022/03/09 01:52:09;;;;;;;4.00;1.63;;;;;;;-1.82;67.32;96795.19;5036799;28;20732;-70
2022/03/09 01:54:36;;;;;;;1.17;1.07;;;;;;;-1.88;66.92;96789.53;5037050;28;20208;-70
2022/03/09 01:57:04;;;;;;;7.80;2.07;;;;;;;-2.15;67.84;96785.97;5036833;28;20303;-71
2022/03/09 01:59:30;;;;;;;4.17;2.87;;;;;;;-2.36;69.36;96787.19;5036846;28;20969;-70
2022/03/09 02:01:58;;;;;;;1.43;0.77;;;;;;;-2.01;67.94;96783.44;5036891;28;20225;-69
2022/03/09 02:04:25;;;;;;;1.10;1.00;;;;;;;-2.20;67.75;96788.00;5035537;28;20208;-69
2022/03/09 02:06:52;;;;;;;1.17;1.10;;;;;;;-1.92;67.10;96776.88;5037091;28;20583;-69
2022/03/09 02:12:04;;;;;;;2.50;1.57;;;;;;;-1.84;67.53;96785.88;5036275;28;20212;-69
2022/03/09 02:14:32;;;;;;;0.90;0.50;;;;;;;-2.12;68.62;96784.97;5036271;28;20212;-69
2022/03/09 02:17:01;;;;;;;6.93;2.07;;;;;;;-2.24;68.60;96786.50;5036647;28;20212;-70
2022/03/09 02:19:28;;;;;;;2.10;1.57;;;;;;;-2.38;68.69;96794.19;5036276;28;20207;-69
2022/03/09 02:22:04;;;;;;;3.43;2.03;;;;;;;-2.12;69.05;96785.78;5035516;28;20232;-70
2022/03/09 02:24:32;;;;;;;2.93;2.60;;;;;;;-2.16;69.16;96788.66;5036528;28;20577;-69
2022/03/09 02:26:59;;;;;;;1.37;1.27;;;;;;;-2.47;69.52;96785.31;5036131;28;20223;-70
2022/03/09 02:29:25;;;;;;;4.40;1.37;;;;;;;-2.39;68.78;96787.38;5035000;28;21197;-71
2022/03/09 02:31:52;;;;;;;3.17;2.20;;;;;;;-2.42;68.13;96787.53;5035667;28;20204;-71
2022/03/09 02:34:18;;;;;;;3.63;2.00;;;;;;;-2.42;68.14;96791.84;5035200;28;20682;-71
2022/03/09 02:36:45;;;;;;;2.47;2.27;;;;;;;-2.42;68.19;96797.88;5035379;28;20401;-71
2022/03/09 02:39:12;;;;;;;1.17;1.13;;;;;;;-2.40;68.51;96790.03;5035844;28;20491;-70
2022/03/09 02:41:39;;;;;;;1.30;1.20;;;;;;;-2.37;68.46;96801.03;5035321;28;20235;-70
2022/03/09 02:44:06;;;;;;;0.87;0.87;;;;;;;-2.55;68.87;96808.13;5036655;28;20230;-70
2022/03/09 02:46:32;;;;;;;1.70;1.57;;;;;;;-2.67;69.62;96806.19;5039214;28;20674;-70
2022/03/09 02:48:59;;;;;;;1.10;1.10;;;;;;;-2.59;69.19;96811.78;5039678;28;20209;-70
2022/03/09 02:51:25;;;;;;;2.20;1.53;;;;;;;-2.55;68.63;96821.03;5039194;28;20205;-70
2022/03/09 02:53:52;;;;;;;3.13;2.10;;;;;;;-2.51;69.03;96822.50;5038659;28;20606;-70
2022/03/09 02:56:18;;;;;;;4.63;1.93;;;;;;;-2.51;68.97;96817.34;5039275;28;20208;-70
2022/03/09 02:58:47;;;;;;;1.33;1.23;;;;;;;-2.43;68.87;96815.16;5039259;28;20390;-71
2022/03/09 03:01:14;;;;;;;5.87;1.57;;;;;;;-2.72;69.45;96808.22;5039077;28;20351;-70
2022/03/09 03:03:41;;;;;;;2.70;1.70;;;;;;;-2.65;70.31;96812.94;5038376;28;20256;-70
2022/03/09 03:06:08;;;;;;;9.57;1.60;;;;;;;-2.65;70.54;96799.22;5039164;28;20204;-70
2022/03/09 03:08:34;;;;;;;4.53;1.53;;;;;;;-2.59;70.47;96801.47;5039440;28;20212;-70
2022/03/09 03:11:01;;;;;;;3.53;1.37;;;;;;;-2.45;69.63;96796.38;5038900;28;20212;-70
2022/03/09 03:13:28;;;;;;;1.17;1.10;;;;;;;-2.48;69.00;96793.94;5037966;28;20609;-70
2022/03/09 03:15:56;;;;;;;2.57;1.70;;;;;;;-2.73;70.53;96791.09;5039295;28;20219;-70
2022/03/09 03:18:23;;;;;;;1.97;1.87;;;;;;;-3.03;71.16;96797.88;5038484;28;20216;-70
2022/03/09 03:20:54;;;;;;;1.60;1.07;;;;;;;-2.81;70.64;96798.41;5035854;28;20763;-70
2022/03/09 03:23:20;;;;;;;5.13;2.00;;;;;;;-2.78;69.48;96800.81;5038163;28;20857;-70
2022/03/09 03:25:47;;;;;;;1.77;1.13;;;;;;;-2.74;69.17;96799.72;5038332;28;20211;-70
2022/03/09 03:28:13;;;;;;;0.63;0.63;;;;;;;-2.70;69.43;96801.22;5039352;28;20215;-70
2022/03/09 03:30:40;;;;;;;1.20;1.10;;;;;;;-2.60;69.36;96807.53;5038268;28;20685;-70
2022/03/09 03:33:08;;;;;;;3.80;1.97;;;;;;;-2.51;69.51;96810.44;5037643;28;20493;-70
2022/03/09 03:35:34;;;;;;;4.20;1.97;;;;;;;-2.59;69.92;96809.22;5038951;28;20606;-70
2022/03/09 03:38:01;;;;;;;1.20;1.10;;;;;;;-2.84;70.32;96814.88;5039380;28;20669;-70
2022/03/09 03:40:27;;;;;;;1.03;1.03;;;;;;;-2.69;69.64;96819.19;5038113;28;20214;-70
2022/03/09 03:42:54;;;;;;;1.27;1.03;;;;;;;-2.94;70.02;96816.28;5037837;28;20751;-70
2022/03/09 03:45:20;;;;;;;2.17;1.83;;;;;;;-3.03;70.00;96817.69;5038909;28;20203;-70
2022/03/09 03:47:47;;;;;;;1.00;1.00;;;;;;;-2.95;70.45;96816.38;5038288;28;20478;-70
2022/03/09 03:50:15;;;;;;;2.63;1.10;;;;;;;-2.67;69.66;96821.66;5038313;28;20208;-70
2022/03/09 03:52:41;;;;;;;1.03;1.00;;;;;;;-2.87;69.70;96825.34;5037922;28;20224;-70
2022/03/09 03:55:09;;;;;;;1.37;1.27;;;;;;;-2.77;69.91;96820.53;5037781;28;20701;-70
2022/03/09 03:57:35;;;;;;;1.40;1.23;;;;;;;-2.76;69.64;96822.19;5038110;28;20208;-71
2022/03/09 04:00:02;;;;;;;1.70;1.57;;;;;;;-2.76;69.58;96823.03;5038145;28;20204;-70
2022/03/09 04:02:28;;;;;;;3.47;2.77;;;;;;;-2.80;70.52;96836.16;5036727;28;20259;-70
2022/03/09 04:04:55;;;;;;;1.83;1.73;;;;;;;-2.83;69.68;96836.31;5038018;28;20212;-70
2022/03/09 04:07:23;;;;;;;1.70;1.60;;;;;;;-2.64;69.42;96834.41;5038059;28;20204;-70
2022/03/09 04:09:49;;;;;;;1.43;0.90;;;;;;;-2.95;69.55;96847.31;5038509;28;20209;-70
2022/03/09 04:12:16;;;;;;;1.57;1.47;;;;;;;-2.99;69.19;96848.38;5037251;28;20222;-70
2022/03/09 04:14:43;;;;;;;2.50;1.50;;;;;;;-2.97;69.83;96854.28;5037465;28;20212;-70
2022/03/09 04:17:09;;;;;;;1.97;1.60;;;;;;;-3.09;69.63;96838.63;5037684;28;20216;-70
2022/03/09 04:19:36;;;;;;;1.20;1.10;;;;;;;-3.07;69.83;96839.38;5039515;28;20204;-70
2022/03/09 04:22:02;;;;;;;3.40;2.80;;;;;;;-3.21;70.50;96842.69;5048304;28;20235;-70
2022/03/09 04:24:30;;;;;;;1.20;1.10;;;;;;;-2.90;70.04;96840.16;5048859;28;20212;-70
2022/03/09 04:26:57;;;;;;;0.70;0.70;;;;;;;-3.22;68.57;96845.34;5048862;28;20219;-70
2022/03/09 04:29:23;;;;;;;1.33;1.20;;;;;;;-3.24;68.74;96845.44;5047258;28;20215;-70
2022/03/09 04:31:50;;;;;;;1.17;1.07;;;;;;;-3.17;68.90;96846.78;5047994;28;20394;-70
2022/03/09 04:34:16;;;;;;;1.03;0.97;;;;;;;-3.13;69.72;96850.88;5047457;28;20259;-70
2022/03/09 04:36:43;;;;;;;3.17;2.30;;;;;;;-3.23;70.01;96857.41;5047913;28;20200;-70
2022/03/09 04:39:09;;;;;;;1.90;1.77;;;;;;;-3.34;70.29;96859.69;5047022;28;20215;-70
2022/03/09 04:41:37;;;;;;;0.77;0.77;;;;;;;-3.27;71.01;96871.34;5046870;28;20683;-70
2022/03/09 04:44:04;;;;;;;0.70;0.70;;;;;;;-3.55;69.06;96883.97;5044881;28;20228;-70
2022/03/09 04:46:31;;;;;;;1.03;1.00;;;;;;;-3.55;69.60;96883.97;5046831;28;20731;-70
2022/03/09 04:48:58;;;;;;;1.37;1.27;;;;;;;-3.39;70.38;96876.31;5046546;28;20671;-70
2022/03/09 04:51:24;;;;;;;0.90;0.90;;;;;;;-3.38;72.43;96878.78;5046301;28;20211;-70
2022/03/09 04:53:51;;;;;;;1.20;1.10;;;;;;;-3.26;72.12;96875.59;5044792;28;20220;-70
2022/03/09 04:56:17;;;;;;;1.97;1.33;;;;;;;-3.28;72.01;96872.25;5044964;28;20208;-69
2022/03/09 04:58:45;;;;;;;1.20;1.17;;;;;;;-3.17;71.75;96862.25;5045667;28;20222;-69
2022/03/09 05:01:12;;;;;;;0.90;0.90;;;;;;;-3.28;70.95;96863.72;5045963;28;20303;-69
2022/03/09 05:03:38;;;;;;;1.77;1.63;;;;;;;-3.30;71.48;96866.34;5044337;28;20232;-69
2022/03/09 05:06:05;;;;;;;1.73;1.63;;;;;;;-3.24;73.03;96868.63;5042912;28;20565;-69
2022/03/09 05:08:32;;;;;;;2.97;1.97;;;;;;;-3.13;74.27;96862.91;5044179;28;20211;-69
2022/03/09 05:10:58;;;;;;;2.27;1.60;;;;;;;-3.08;74.59;96868.66;5044017;28;20219;-69
2022/03/09 05:13:25;;;;;;;1.77;1.67;;;;;;;-2.97;74.42;96869.75;5043732;28;20227;-69
2022/03/09 05:15:53;;;;;;;1.33;0.90;;;;;;;-2.81;74.03;96881.75;5043513;28;20232;-69
2022/03/09 05:18:19;;;;;;;0.70;0.70;;;;;;;-2.90;73.90;96892.53;5042900;28;20253;-69
2022/03/09 05:20:47;;;;;;;2.43;1.23;;;;;;;-2.82;73.41;96876.69;5043683;28;20211;-70
2022/03/09 05:23:13;;;;;;;1.67;1.57;;;;;;;-2.87;72.53;96879.47;5043711;28;20235;-69
2022/03/09 05:25:40;;;;;;;0.90;0.80;;;;;;;-2.85;71.99;96879.41;5041938;28;20207;-70
2022/03/09 05:28:06;;;;;;;0.93;0.93;;;;;;;-2.84;71.32;96881.06;5036487;28;20232;-70
2022/03/09 05:30:33;;;;;;;1.13;0.73;;;;;;;-2.81;71.00;96884.31;5036399;28;20208;-70
2022/03/09 05:33:01;;;;;;;2.03;1.83;;;;;;;-2.65;71.87;96882.56;5037918;28;20224;-71
2022/03/09 05:35:27;;;;;;;1.00;0.90;;;;;;;-2.91;71.80;96890.06;5043458;28;20224;-69
2022/03/09 05:37:54;;;;;;;0.93;0.93;;;;;;;-2.91;72.21;96880.56;5044418;28;20395;-69
2022/03/09 05:40:20;;;;;;;3.70;2.07;;;;;;;-2.84;71.49;96883.66;5040173;28;20212;-72
2022/03/09 05:42:47;;;;;;;1.37;1.20;;;;;;;-2.81;71.39;96886.09;5035283;28;20539;-70
2022/03/09 05:45:13;;;;;;;3.90;2.50;;;;;;;-2.74;70.81;96889.97;5036261;28;20689;-70
2022/03/09 05:47:40;;;;;;;2.70;1.57;;;;;;;-2.75;70.83;96889.16;5036651;28;20208;-70
2022/03/09 05:50:09;;;;;;;2.20;2.03;;;;;;;-2.56;70.83;96897.56;5035423;28;20692;-72
2022/03/09 05:52:35;;;;;;;1.37;1.30;;;;;;;-2.70;70.53;96894.06;5043762;28;20232;-70
2022/03/09 05:55:02;;;;;;;2.33;1.20;;;;;;;-2.75;70.16;96902.06;5049680;28;20211;-70
2022/03/09 05:57:28;;;;;;;1.13;1.03;;;;;;;-2.91;70.29;96915.84;5047800;28;20212;-70
2022/03/09 05:59:55;;;;;;;7.60;2.27;;;;;;;-2.87;71.09;96918.16;5048255;28;20216;-70
2022/03/09 06:02:21;;;;;;;2.93;2.73;;;;;;;-2.88;71.16;96911.38;5048033;28;20280;-70
2022/03/09 06:04:47;;;;;;;3.40;2.03;;;;;;;-2.87;71.78;96927.66;5047872;28;20204;-70
2022/03/09 06:07:15;;;;;;;2.70;2.50;;;;;;;-2.70;71.87;96936.19;5048664;28;20208;-70
2022/03/09 06:09:42;;;;;;;4.77;1.77;;;;;;;-2.91;72.56;96946.78;5048836;28;20212;-70
2022/03/09 06:12:09;;;;;;;6.87;2.83;;;;;;;-2.65;72.41;96944.47;5048345;28;20205;-70
2022/03/09 06:14:35;;;;;;;11.10;3.43;;;;;;;-2.94;72.47;96957.22;5048121;28;20204;-70
2022/03/09 06:17:02;;;;;;;2.10;1.90;;;;;;;-2.69;72.18;96957.63;5047861;28;20208;-70
2022/03/09 06:19:29;;;;;;;2.67;1.70;;;;;;;-2.54;72.11;96956.84;5050567;28;20202;-70
2022/03/09 06:21:55;;;;;;;2.17;1.67;;;;;;;-2.42;71.66;96953.59;5052531;28;20216;-70
2022/03/09 06:24:23;;;;;;;2.20;1.67;;;;;;;-2.23;71.29;96953.34;5052322;28;20246;-70
2022/03/09 06:26:49;;;;;;;2.03;1.93;;;;;;;-2.28;71.21;96955.34;5051912;28;20219;-70
2022/03/09 06:29:16;;;;;;;6.17;2.67;;;;;;;-2.24;70.95;96956.00;5051729;28;20220;-70
2022/03/09 06:31:44;;;;;;;3.40;2.63;;;;;;;-2.20;70.62;96955.75;5051517;28;20238;-70
2022/03/09 06:34:11;;;;;;;5.60;2.77;;;;;;;-1.99;70.57;96951.16;5051777;28;20310;-70
2022/03/09 06:36:39;;;;;;;1.27;1.27;;;;;;;-1.86;70.64;96960.72;5050952;28;20228;-70
2022/03/09 06:39:05;;;;;;;1.20;1.13;;;;;;;-1.82;70.19;96965.63;5050200;28;20209;-70
2022/03/09 06:41:33;;;;;;;7.00;3.60;;;;;;;-1.65;70.71;96964.69;5050047;28;20204;-70
2022/03/09 06:43:59;;;;;;;4.83;3.10;;;;;;;-1.74;71.10;96960.06;5049887;28;20233;-70
2022/03/09 06:46:26;;;;;;;5.60;2.40;;;;;;;-1.68;70.77;96955.38;5050511;28;20235;-70
2022/03/09 06:48:52;;;;;;;2.20;2.00;;;;;;;-1.67;70.60;96957.03;5051326;28;20218;-70
2022/03/09 06:51:19;;;;;;;4.63;4.20;;;;;;;-1.56;70.73;96967.59;5050788;28;20204;-70
2022/03/09 06:53:46;;;;;;;1.93;1.67;;;;;;;-1.40;72.10;96964.97;5050569;28;20986;-70
2022/03/09 06:56:13;;;;;;;4.50;3.37;;;;;;;-1.23;71.49;96969.97;5050622;28;20251;-70
2022/03/09 06:58:40;;;;;;;4.97;2.57;;;;;;;-0.97;71.66;96973.56;5050647;28;20775;-70
2022/03/09 07:01:07;;;;;;;5.00;2.70;;;;;;;-1.00;71.15;96965.16;5050963;28;20304;-70
2022/03/09 07:03:33;;;;;;;2.57;2.10;;;;;;;-1.02;71.25;96969.56;5049571;28;20236;-70
2022/03/09 07:06:00;;;;;;;2.77;2.33;;;;;;;-0.91;71.17;96967.19;5050983;28;20219;-70
2022/03/09 07:08:27;;;;;;;1.60;1.20;;;;;;;-0.79;70.46;96962.13;5051044;28;20656;-70
2022/03/09 07:10:54;;;;;;;12.40;2.37;;;;;;;-0.95;70.61;96961.38;5051075;28;20244;-70
2022/03/09 07:13:21;;;;;;;2.60;2.03;;;;;;;-0.72;70.01;96958.25;5051644;28;20221;-70
2022/03/09 07:15:48;;;;;;;1.97;1.87;;;;;;;-0.44;68.84;96958.25;5052050;28;20370;-70
2022/03/09 07:18:15;;;;;;;1.83;1.43;;;;;;;-0.46;68.53;96965.25;5052741;28;20584;-70
2022/03/09 07:20:42;;;;;;;2.20;1.60;;;;;;;-0.35;68.88;96965.44;5052715;28;20201;-70
2022/03/09 07:23:08;;;;;;;2.53;2.33;;;;;;;-0.23;69.34;96965.53;5042437;28;20257;-70
2022/03/09 07:25:35;;;;;;;4.37;2.37;;;;;;;-0.26;70.62;96960.53;5039063;28;20212;-70
2022/03/09 07:28:02;;;;;;;7.20;3.03;;;;;;;-0.28;70.63;96964.97;5039059;28;20201;-70
2022/03/09 07:30:28;;;;;;;1.40;1.10;;;;;;;-0.06;69.12;96962.72;5038836;28;20201;-70
2022/03/09 07:32:56;;;;;;;4.57;2.10;;;;;;;-0.05;68.76;96969.56;5038146;28;20320;-70
2022/03/09 07:35:23;;;;;;;2.00;1.80;;;;;;;0.00;68.70;96964.94;5039011;28;20202;-70
2022/03/09 07:37:51;;;;;;;1.43;1.30;;;;;;;-0.01;69.00;96964.09;5039492;28;20673;-70
2022/03/09 07:40:18;;;;;;;2.27;1.47;;;;;;;0.12;68.94;96962.38;5038803;28;20262;-70
2022/03/09 07:42:44;;;;;;;2.83;2.00;;;;;;;0.25;69.34;96971.03;5038168;28;20236;-69
2022/03/09 07:45:11;;;;;;;2.63;2.37;;;;;;;0.24;68.53;96964.22;5051844;28;20201;-70
2022/03/09 07:47:38;;;;;;;1.03;0.90;;;;;;;0.42;68.78;96957.84;5051986;28;20631;-70
2022/03/09 07:50:08;;;;;;;0.77;0.70;;;;;;;0.47;69.93;96950.63;5052241;28;20251;-70
2022/03/09 07:52:34;;;;;;;2.90;2.13;;;;;;;0.34;70.16;96943.72;5044889;28;20228;-70
2022/03/09 07:55:01;;;;;;;9.67;4.30;;;;;;;0.49;69.62;96947.91;5038733;28;20201;-70
2022/03/09 07:57:27;;;;;;;1.47;0.90;;;;;;;0.63;69.69;96948.66;5038324;28;20689;-70
2022/03/09 07:59:54;;;;;;;4.97;2.80;;;;;;;0.78;68.38;96951.09;5038717;28;20209;-70
2022/03/09 08:02:21;;;;;;;3.53;2.53;;;;;;;1.15;68.94;96949.50;5038321;28;20660;-71
2022/03/09 08:04:47;;;;;;;5.40;2.47;;;;;;;1.24;67.92;96949.69;5038079;28;20298;-70
2022/03/09 08:07:15;;;;;;;1.63;1.37;;;;;;;1.39;66.76;96941.69;5038541;28;20201;-70
2022/03/09 08:09:44;;;;;;;2.17;1.93;;;;;;;1.44;65.93;96942.19;5039027;28;20871;-70
2022/03/09 08:12:11;;;;;;;4.47;2.00;;;;;;;1.65;65.24;96935.50;5037814;28;20205;-71
2022/03/09 08:14:37;;;;;;;2.37;1.70;;;;;;;1.73;64.60;96942.78;5038380;28;20197;-71
2022/03/09 08:17:05;;;;;;;2.43;1.90;;;;;;;1.84;64.62;96936.72;5038826;28;20218;-70
2022/03/09 08:19:31;;;;;;;3.40;2.67;;;;;;;1.95;63.51;96935.97;5038627;28;20220;-70
2022/03/09 08:21:58;;;;;;;9.47;2.93;;;;;;;2.46;63.29;96936.50;5037745;28;20302;-71
2022/03/09 08:24:27;;;;;;;7.10;2.27;;;;;;;2.63;62.06;96938.69;5038556;28;20251;-71
2022/03/09 08:26:53;;;;;;;3.60;2.00;;;;;;;2.65;61.29;96926.41;5038349;28;20197;-70
2022/03/09 08:29:20;;;;;;;5.67;2.73;;;;;;;2.73;60.56;96926.66;5038056;28;20233;-71
2022/03/09 08:31:50;;;;;;;2.90;1.77;;;;;;;3.04;59.96;96924.28;5037968;28;21241;-70
2022/03/09 08:34:20;;;;;;;6.67;3.73;;;;;;;2.97;59.17;96921.44;5037205;28;20721;-71
2022/03/09 08:36:46;;;;;;;4.70;2.60;;;;;;;2.98;59.01;96921.31;5036298;28;20216;-70
2022/03/09 08:39:13;;;;;;;2.33;2.13;;;;;;;2.90;59.01;96923.63;5038664;28;20600;-71
2022/03/09 08:41:40;;;;;;;5.33;2.77;;;;;;;3.36;58.95;96935.72;5036732;28;20219;-70
2022/03/09 08:44:07;;;;;;;6.43;3.27;;;;;;;3.20;58.49;96939.59;5036687;28;20232;-71
2022/03/09 08:46:34;;;;;;;2.93;1.77;;;;;;;3.56;58.08;96942.00;5038265;28;20197;-71
2022/03/09 08:49:00;;;;;;;2.90;2.30;;;;;;;3.66;57.40;96939.38;5037889;28;20212;-71
2022/03/09 08:51:27;;;;;;;4.70;2.80;;;;;;;3.68;57.03;96947.91;5037593;28;20205;-72
2022/03/09 08:53:53;;;;;;;1.13;1.07;;;;;;;3.83;57.21;96941.53;5037029;28;20232;-71
2022/03/09 08:56:20;;;;;;;6.90;2.23;;;;;;;4.06;56.45;96937.94;5037951;28;20209;-71
2022/03/09 08:58:48;;;;;;;4.50;3.00;;;;;;;3.78;56.29;96941.06;5037342;28;20241;-71
2022/03/09 09:01:15;;;;;;;4.30;1.90;;;;;;;4.04;56.42;96944.22;5037600;28;20202;-71
2022/03/09 09:03:42;;;;;;;6.60;1.93;;;;;;;4.11;55.81;96942.78;5036974;28;20251;-71
2022/03/09 09:06:08;;;;;;;7.83;4.30;;;;;;;4.11;55.70;96948.00;5037726;28;20212;-71
2022/03/09 09:08:35;;;;;;;7.00;3.10;;;;;;;4.36;54.92;96949.38;5037378;28;20205;-71
2022/03/09 09:11:02;;;;;;;4.53;3.13;;;;;;;4.36;55.51;96951.16;5036973;28;20204;-71
2022/03/09 09:13:28;;;;;;;4.87;2.80;;;;;;;4.50;55.70;96956.09;5036885;28;20217;-72
2022/03/09 09:15:56;;;;;;;9.47;3.70;;;;;;;4.83;54.72;96956.81;5037254;28;20216;-71
2022/03/09 09:18:22;;;;;;;9.77;3.13;;;;;;;4.42;56.43;96961.94;5036987;28;20751;-71
2022/03/09 09:20:49;;;;;;;7.37;3.73;;;;;;;4.83;55.42;96962.84;5037423;28;20209;-71
2022/03/09 09:23:17;;;;;;;8.53;3.67;;;;;;;5.09;54.76;96958.97;5036477;28;20232;-71
2022/03/09 09:25:44;;;;;;;10.57;4.13;;;;;;;5.17;53.67;96956.53;5037374;28;20201;-71
2022/03/09 09:28:10;;;;;;;9.80;4.20;;;;;;;5.44;53.37;96957.66;5036984;28;21083;-71
2022/03/09 09:30:37;;;;;;;10.77;5.73;;;;;;;5.31;52.96;96951.00;5037205;28;20209;-71
2022/03/09 09:33:05;;;;;;;11.60;3.60;;;;;;;5.50;52.93;96954.53;5035918;28;20725;-71
2022/03/09 09:35:32;;;;;;;8.63;2.93;;;;;;;5.29;52.83;96965.16;5037305;28;20231;-71
2022/03/09 09:38:06;;;;;;;18.00;4.47;;;;;;;5.28;53.18;96953.84;5036254;28;20212;-71
2022/03/09 09:40:34;;;;;;;11.47;4.43;;;;;;;5.28;53.34;96964.28;5036243;28;20205;-71
2022/03/09 09:43:01;;;;;;;8.17;3.27;;;;;;;5.31;53.46;96964.06;5035631;28;20310;-71
2022/03/09 09:45:27;;;;;;;7.27;4.50;;;;;;;5.21;53.46;96963.16;5039834;28;20666;-70
2022/03/09 09:47:54;;;;;;;8.93;4.40;;;;;;;5.70;52.39;96955.47;5051666;28;20209;-70
2022/03/09 09:50:22;;;;;;;10.70;4.37;;;;;;;6.06;51.96;96951.41;5051702;28;20215;-70
2022/03/09 09:52:48;;;;;;;9.83;4.20;;;;;;;5.88;52.56;96948.72;5050975;28;20225;-70
2022/03/09 09:55:15;;;;;;;6.30;4.17;;;;;;;5.80;52.62;96940.69;5051128;28;20658;-70
2022/03/09 09:57:43;;;;;;;13.93;3.90;;;;;;;6.13;52.30;96944.66;5051295;28;20650;-70
2022/03/09 10:00:11;;;;;;;5.40;3.90;;;;;;;6.30;52.38;96943.19;5048564;28;20205;-70
2022/03/09 10:02:38;;;;;;;4.53;3.30;;;;;;;6.41;51.56;96932.63;5050566;28;20724;-70
2022/03/09 10:05:05;;;;;;;12.87;5.37;;;;;;;6.65;51.24;96943.56;5051213;28;20221;-70
2022/03/09 10:07:33;;;;;;;6.17;3.10;;;;;;;7.25;50.87;96939.69;5051212;28;20673;-70
2022/03/09 10:10:00;;;;;;;10.07;5.17;;;;;;;7.40;49.37;96933.88;5047811;28;20202;-70
2022/03/09 10:12:28;;;;;;;11.67;4.00;;;;;;;7.19;50.96;96936.78;5044905;28;20628;-70
2022/03/09 10:14:55;;;;;;;6.50;3.47;;;;;;;7.48;50.27;96933.97;5050823;28;20724;-70
2022/03/09 10:17:24;;;;;;;7.27;5.00;;;;;;;7.52;50.94;96934.53;5050734;28;20223;-70
2022/03/09 10:19:53;;;;;;;10.00;5.13;;;;;;;7.61;50.76;96929.28;5050921;28;20197;-70
2022/03/09 10:22:25;;;;;;;17.73;3.63;;;;;;;7.76;49.33;96925.22;5050301;28;20228;-70
2022/03/09 10:24:54;;;;;;;11.10;3.13;;;;;;;7.27;50.43;96937.75;5048475;28;20236;-70
2022/03/09 10:27:42;;;;;;;11.37;2.87;;;;;;;7.84;49.49;96929.75;5050371;28;20213;-70
2022/03/09 10:30:11;;;;;;;9.27;4.00;;;;;;;7.48;51.36;96938.41;5050578;28;20690;-70
2022/03/09 10:32:53;;;;;;;9.80;4.17;;;;;;;8.24;49.53;96931.13;5048660;28;20264;-70
2022/03/09 10:35:21;;;;;;;11.77;5.23;;;;;;;7.80;49.43;96933.63;5050550;28;20197;-70
2022/03/09 10:37:49;;;;;;;14.80;4.87;;;;;;;8.16;49.35;96936.25;5050045;28;20828;-70
2022/03/09 10:40:19;;;;;;;8.50;4.47;;;;;;;7.82;49.35;96934.31;5050301;28;20206;-70
2022/03/09 10:42:46;;;;;;;13.40;5.20;;;;;;;8.22;49.54;96933.06;5048052;28;20228;-70
2022/03/09 10:45:14;;;;;;;9.23;4.70;;;;;;;8.48;47.63;96936.63;5043180;28;20225;-70
2022/03/09 10:47:44;;;;;;;20.10;6.23;;;;;;;8.83;46.69;96935.72;5036328;28;20299;-70
2022/03/09 10:50:16;;;;;;;13.00;3.50;;;;;;;9.06;45.92;96934.28;5036253;28;20208;-70
2022/03/09 10:52:51;;;;;;;8.10;3.43;;;;;;;8.91;46.21;96927.06;5035129;28;20576;-71
2022/03/09 10:55:30;;;;;;;10.40;4.67;;;;;;;8.80;46.87;96922.88;5035912;28;20200;-70
2022/03/09 10:58:11;;;;;;;8.40;3.30;;;;;;;9.02;45.32;96922.41;5036441;28;20245;-71
2022/03/09 11:00:40;;;;;;;12.83;6.03;;;;;;;8.86;46.07;96913.56;5035914;28;20803;-71
2022/03/09 11:03:09;;;;;;;21.07;6.10;;;;;;;8.74;46.02;96923.47;5035248;28;20321;-70
2022/03/09 11:05:36;;;;;;;11.67;4.93;;;;;;;8.98;45.00;96925.53;5037935;28;20232;-71
2022/03/09 11:08:03;;;;;;;11.93;5.23;;;;;;;8.87;46.19;96913.44;5039723;28;20205;-71
2022/03/09 11:10:31;;;;;;;20.60;5.77;;;;;;;8.93;46.17;96907.56;5039661;28;20209;-70
2022/03/09 11:12:58;;;;;;;15.77;6.40;;;;;;;9.01;46.34;96905.00;5039157;28;20225;-70
2022/03/09 11:15:25;;;;;;;9.93;3.90;;;;;;;9.26;45.42;96906.84;5039244;28;20205;-71
2022/03/09 11:17:54;;;;;;;16.40;5.60;;;;;;;9.54;44.35;96896.03;5039350;28;20733;-70
2022/03/09 11:20:20;;;;;;;13.80;5.80;;;;;;;9.54;44.42;96893.41;5039991;28;20255;-70
2022/03/09 11:22:47;;;;;;;10.03;5.40;;;;;;;9.44;43.46;96897.94;5038616;28;20443;-70
2022/03/09 11:25:13;;;;;;;7.33;3.70;;;;;;;9.13;44.80;96903.78;5039232;28;20225;-71
2022/03/09 11:27:47;;;;;;;13.17;6.20;;;;;;;9.28;44.30;96900.47;5040720;28;20221;-71
2022/03/09 11:30:25;;;;;;;10.87;4.40;;;;;;;9.78;43.67;96896.19;5038815;28;20209;-71
2022/03/09 11:32:54;;;;;;;7.93;3.93;;;;;;;9.43;44.18;96892.84;5037925;28;20228;-71
2022/03/09 11:35:40;;;;;;;10.40;4.73;;;;;;;9.72;43.73;96892.38;5039597;28;20291;-71
2022/03/09 11:38:41;;;;;;;18.93;6.40;;;;;;;9.56;43.69;96885.34;5039130;28;20212;-71